Time;durP1;ratioP1;P1;durP2;ratioP2;P2;SDS_P1;SDS_P2;PMS_P1;PMS_P2;Temp;Humidity;BMP_temperature;BMP_pressure;BME280_temperature;BME280_humidity;BME280_pressure;Samples;Min_cycle;Max_cycle;Signal;HPM_P1;HPM_P2
2023/01/20 00:01:54;;;;;;;10.70;9.60;;;1.70;94.90;;;;;;5048760;28;20181;-91
2023/01/20 00:04:22;;;;;;;11.20;9.47;;;1.70;94.60;;;;;;5036086;28;20207;-91
2023/01/20 00:06:48;;;;;;;10.40;9.30;;;1.50;95.70;;;;;;5043252;28;20214;-91
2023/01/20 00:09:15;;;;;;;9.50;8.53;;;1.60;95.70;;;;;;5025874;28;20189;-91
2023/01/20 00:11:44;;;;;;;9.67;8.67;;;1.60;95.60;;;;;;5042206;28;20596;-91
2023/01/20 00:14:10;;;;;;;10.23;9.23;;;1.60;95.30;;;;;;5043815;28;20204;-90
2023/01/20 00:16:46;;;;;;;9.80;8.70;;;1.50;95.10;;;;;;5042360;28;20203;-92
2023/01/20 00:19:20;;;;;;;9.77;8.77;;;1.40;95.90;;;;;;5039058;28;20208;-91
2023/01/20 00:21:46;;;;;;;9.90;8.90;;;1.40;96.60;;;;;;5023714;28;20169;-90
2023/01/20 00:24:20;;;;;;;8.83;7.93;;;1.50;96.20;;;;;;5022463;28;20207;-92
2023/01/20 00:26:57;;;;;;;9.37;8.47;;;1.50;95.50;;;;;;5021195;28;20230;-91
2023/01/20 00:29:37;;;;;;;8.67;7.50;;;1.50;95.40;;;;;;4999182;28;20205;-92
2023/01/20 00:32:05;;;;;;;9.00;8.20;;;1.50;95.20;;;;;;5001354;28;20192;-89
2023/01/20 00:34:31;;;;;;;8.90;7.77;;;1.50;95.30;;;;;;5031269;28;20230;-91
2023/01/20 00:37:11;;;;;;;9.87;7.73;;;1.50;95.30;;;;;;5015659;28;20598;-90
2023/01/20 00:39:43;;;;;;;10.63;8.97;;;1.50;94.90;;;;;;5033266;28;20620;-92
2023/01/20 00:42:11;;;;;;;9.30;8.33;;;1.40;95.00;;;;;;5049547;28;20191;-91
2023/01/20 00:44:42;;;;;;;9.53;8.37;;;1.30;95.90;;;;;;5052778;28;20180;-92
2023/01/20 00:47:14;;;;;;;9.50;8.60;;;1.40;97.00;;;;;;5035293;28;20184;-89
2023/01/20 00:49:45;;;;;;;9.07;8.07;;;1.40;95.90;;;;;;5034617;28;20277;-92
2023/01/20 00:52:22;;;;;;;8.63;7.93;;;1.30;95.70;;;;;;5035160;28;20184;-92
2023/01/20 00:55:02;;;;;;;8.63;7.73;;;1.30;95.50;;;;;;5035413;28;20231;-91
2023/01/20 00:57:50;;;;;;;11.90;8.83;;;1.30;95.80;;;;;;5015879;28;20242;-91
2023/01/20 01:00:19;;;;;;;10.70;8.33;;;1.30;95.80;;;;;;5016055;28;20208;-91
2023/01/20 01:03:04;;;;;;;10.23;8.33;;;1.30;96.70;;;;;;5016578;28;20185;-90
2023/01/20 01:05:51;;;;;;;8.47;7.67;;;1.30;95.80;;;;;;5035193;28;20267;-92
2023/01/20 01:08:34;;;;;;;8.80;8.00;;;1.30;95.70;;;;;;5033468;28;20208;-91
2023/01/20 01:11:31;;;;;;;10.13;7.77;;;1.20;96.00;;;;;;5016360;28;20187;-90
2023/01/20 01:13:57;;;;;;;8.43;7.60;;;1.20;96.40;;;;;;5013804;28;20201;-90
2023/01/20 01:16:22;;;;;;;9.63;8.73;;;1.20;96.70;;;;;;5032177;28;20200;-91
2023/01/20 01:22:35;;;;;;;9.17;8.27;;;1.00;96.60;;;;;;4975651;28;20193;-91
2023/01/20 01:25:07;;;;;;;9.60;8.60;;;1.00;96.90;;;;;;5014146;28;20245;-92
2023/01/20 01:27:36;;;;;;;8.83;7.30;;;1.10;96.50;;;;;;5034656;28;20193;-91
2023/01/20 01:30:08;;;;;;;9.20;8.13;;;1.00;97.30;;;;;;5031412;28;20221;-91
2023/01/20 01:32:36;;;;;;;8.63;7.83;;;1.10;96.90;;;;;;5053920;28;20188;-92
2023/01/20 01:35:05;;;;;;;9.30;8.20;;;1.00;96.60;;;;;;5038045;28;20353;-93
2023/01/20 01:37:38;;;;;;;8.63;7.80;;;0.90;97.10;;;;;;5037921;28;20184;-92
2023/01/20 01:40:05;;;;;;;10.10;7.90;;;1.00;96.70;;;;;;5056113;28;20533;-91
2023/01/20 01:42:37;;;;;;;8.57;7.67;;;1.00;96.90;;;;;;5018944;28;20192;-92
2023/01/20 01:45:11;;;;;;;9.67;8.13;;;1.00;96.90;;;;;;5034276;28;20219;-91
2023/01/20 01:47:48;;;;;;;10.37;8.33;;;1.10;96.60;;;;;;5034975;28;20415;-91
2023/01/20 01:50:19;;;;;;;9.27;8.17;;;1.10;96.50;;;;;;5014130;28;20220;-91
2023/01/20 01:53:07;;;;;;;9.10;8.20;;;1.10;96.40;;;;;;5034967;28;20177;-91
2023/01/20 01:59:20;;;;;;;8.93;8.03;;;1.10;96.00;;;;;;5023550;28;20212;-91
2023/01/20 02:02:12;;;;;;;8.20;7.10;;;1.00;96.20;;;;;;5018013;28;20219;-92
2023/01/20 02:04:54;;;;;;;;;;;;;;;;;;;;;
2023/01/20 02:07:21;;;;;;;8.03;7.17;;;1.10;96.50;;;;;;5040116;28;20267;-90
2023/01/20 02:10:08;;;;;;;8.70;7.90;;;1.00;96.70;;;;;;5022853;28;20201;-90
2023/01/20 02:12:33;;;;;;;8.83;7.47;;;1.10;96.60;;;;;;5040005;28;20173;-90
2023/01/20 02:15:04;;;;;;;8.27;7.37;;;1.10;96.10;;;;;;5020579;28;20622;-92
2023/01/20 02:17:33;;;;;;;10.17;7.53;;;1.00;96.00;;;;;;5048968;28;20227;-91
2023/01/20 02:20:16;;;;;;;8.27;7.47;;;1.00;96.30;;;;;;5058359;28;20822;-92
2023/01/20 02:23:01;;;;;;;8.50;7.70;;;1.10;96.00;;;;;;5057866;28;20171;-90
2023/01/20 02:25:59;;;;;;;8.00;7.10;;;1.10;96.10;;;;;;5027827;28;20204;-91
2023/01/20 02:28:28;;;;;;;8.27;7.47;;;1.10;96.00;;;;;;5038731;23;20266;-85
2023/01/20 02:31:03;;;;;;;8.13;7.40;;;1.10;95.80;;;;;;5023775;28;20205;-86
2023/01/20 02:33:44;;;;;;;10.03;7.80;;;1.10;96.80;;;;;;5041053;28;20165;-86
2023/01/20 02:36:17;;;;;;;10.13;7.13;;;1.10;96.00;;;;;;5041610;28;20220;-87
2023/01/20 02:38:54;;;;;;;8.40;6.90;;;1.10;95.90;;;;;;5041805;28;20199;-86
2023/01/20 02:41:27;;;;;;;9.30;7.37;;;1.10;96.00;;;;;;5041225;28;20534;-86
2023/01/20 02:44:00;;;;;;;9.00;7.77;;;1.10;95.70;;;;;;5041543;28;20169;-86
2023/01/20 02:46:32;;;;;;;7.37;6.67;;;1.10;96.00;;;;;;5041117;28;20177;-86
2023/01/20 02:49:19;;;;;;;8.40;7.60;;;1.10;95.70;;;;;;5041844;28;20581;-87
2023/01/20 02:52:01;;;;;;;8.33;7.53;;;1.10;95.80;;;;;;5042096;28;20532;-86
2023/01/20 02:54:31;;;;;;;6.87;6.27;;;1.10;95.30;;;;;;5044791;28;20193;-87
2023/01/20 02:56:59;;;;;;;8.07;6.87;;;1.10;95.90;;;;;;5044520;28;20197;-87
2023/01/20 02:59:31;;;;;;;7.87;6.90;;;1.10;95.80;;;;;;5044303;28;20181;-86
2023/01/20 03:02:03;;;;;;;8.03;6.93;;;1.00;96.00;;;;;;5044485;28;20161;-86
2023/01/20 03:04:35;;;;;;;7.60;6.90;;;1.10;96.20;;;;;;5043832;28;20185;-86
2023/01/20 03:07:02;;;;;;;7.73;6.70;;;1.10;96.10;;;;;;5025668;28;20197;-87
2023/01/20 03:09:33;;;;;;;8.30;7.37;;;1.10;96.00;;;;;;5026271;28;20276;-86
2023/01/20 03:12:29;;;;;;;7.40;6.70;;;1.10;96.00;;;;;;5043593;28;20896;-87
2023/01/20 03:14:56;;;;;;;9.07;6.33;;;1.10;96.00;;;;;;5038041;28;20232;-87
2023/01/20 03:17:22;;;;;;;8.83;6.70;;;1.10;96.20;;;;;;5045085;28;20189;-87
2023/01/20 03:19:48;;;;;;;7.47;6.77;;;1.00;96.00;;;;;;5044850;28;20173;-87
2023/01/20 03:22:14;;;;;;;8.10;7.10;;;1.00;96.00;;;;;;5044585;28;20201;-88
2023/01/20 03:24:42;;;;;;;7.97;6.97;;;1.00;96.10;;;;;;5045029;28;20181;-87
2023/01/20 03:27:09;;;;;;;7.83;6.73;;;1.00;96.10;;;;;;5044307;28;20193;-87
2023/01/20 03:29:35;;;;;;;8.60;6.83;;;1.00;96.10;;;;;;5044481;28;20228;-87
2023/01/20 03:32:02;;;;;;;7.57;6.80;;;1.10;96.30;;;;;;5044626;28;20184;-87
2023/01/20 03:34:31;;;;;;;10.70;6.90;;;1.10;96.40;;;;;;5045453;28;20231;-87
2023/01/20 03:36:59;;;;;;;7.83;7.03;;;1.00;96.20;;;;;;5045341;28;20203;-87
2023/01/20 03:39:26;;;;;;;7.77;7.03;;;1.10;96.40;;;;;;5043092;28;20165;-87
2023/01/20 03:42:19;;;;;;;7.03;6.33;;;1.10;96.20;;;;;;5042862;28;20201;-87
2023/01/20 03:45:06;;;;;;;8.30;6.77;;;1.10;95.70;;;;;;5024494;28;20187;-86
2023/01/20 03:47:50;;;;;;;7.70;6.87;;;0.90;95.70;;;;;;5043454;28;20219;-86
2023/01/20 03:50:41;;;;;;;7.23;6.53;;;0.90;96.40;;;;;;5042971;28;20183;-87
2023/01/20 03:53:06;;;;;;;7.60;6.80;;;0.90;96.50;;;;;;5043417;28;20165;-86
2023/01/20 03:55:39;;;;;;;8.20;7.20;;;0.80;96.90;;;;;;5043328;28;20585;-87
2023/01/20 03:58:11;;;;;;;7.73;6.93;;;0.80;97.20;;;;;;5042682;28;20196;-87
2023/01/20 04:00:42;;;;;;;7.43;6.67;;;0.80;97.20;;;;;;5024353;28;20181;-87
2023/01/20 04:03:16;;;;;;;7.40;6.70;;;0.80;97.60;;;;;;5022816;28;20181;-87
2023/01/20 04:05:44;;;;;;;7.73;7.03;;;0.80;97.70;;;;;;5028817;28;20310;-87
2023/01/20 04:08:13;;;;;;;7.63;6.60;;;0.90;97.60;;;;;;5042352;28;20197;-86
2023/01/20 04:10:42;;;;;;;9.10;7.00;;;0.90;97.40;;;;;;5039589;28;20216;-87
2023/01/20 04:13:08;;;;;;;8.10;7.17;;;0.90;97.10;;;;;;5020384;28;20197;-87
2023/01/20 04:15:44;;;;;;;7.73;6.93;;;0.80;96.80;;;;;;5022115;28;20248;-87
2023/01/20 04:18:19;;;;;;;7.03;6.33;;;0.70;97.50;;;;;;5022126;28;20228;-87
2023/01/20 04:20:49;;;;;;;8.47;6.53;;;0.80;97.80;;;;;;5005950;28;20177;-87
2023/01/20 04:23:38;;;;;;;8.40;5.97;;;0.80;97.60;;;;;;5023469;28;20177;-86
2023/01/20 04:26:04;;;;;;;7.03;6.17;;;0.90;97.40;;;;;;5024024;28;20678;-87
2023/01/20 04:28:31;;;;;;;7.30;6.20;;;0.80;97.00;;;;;;5029240;28;20192;-85
2023/01/20 04:30:56;;;;;;;7.30;6.43;;;0.90;97.50;;;;;;5043923;28;20169;-87
2023/01/20 04:33:22;;;;;;;8.53;6.70;;;0.90;97.10;;;;;;5044073;28;20295;-87
2023/01/20 04:35:48;;;;;;;8.33;5.80;;;1.00;96.70;;;;;;5045113;28;20212;-87
2023/01/20 04:38:13;;;;;;;6.50;5.70;;;0.90;96.20;;;;;;5027500;28;20208;-86
2023/01/20 04:40:39;;;;;;;7.07;6.37;;;0.90;96.40;;;;;;5044148;28;20241;-86
2023/01/20 04:43:05;;;;;;;7.67;5.90;;;0.80;96.00;;;;;;5040940;28;20173;-84
2023/01/20 04:45:30;;;;;;;8.27;6.20;;;0.80;97.20;;;;;;5038880;28;20181;-87
2023/01/20 04:47:56;;;;;;;6.70;6.00;;;0.80;97.00;;;;;;5040740;28;20216;-86
2023/01/20 04:50:21;;;;;;;6.90;6.20;;;0.80;97.00;;;;;;5041674;28;20227;-86
2023/01/20 04:52:47;;;;;;;7.43;6.03;;;0.70;96.90;;;;;;5037241;28;20186;-86
2023/01/20 04:55:13;;;;;;;6.17;5.50;;;0.70;97.10;;;;;;5036759;28;20211;-87
2023/01/20 04:57:39;;;;;;;6.80;6.07;;;0.80;96.90;;;;;;5035780;28;20262;-87
2023/01/20 05:00:06;;;;;;;6.93;6.23;;;0.80;96.90;;;;;;5036977;28;20192;-86
2023/01/20 05:02:31;;;;;;;8.20;6.33;;;0.80;96.50;;;;;;5036512;28;20203;-86
2023/01/20 05:04:57;;;;;;;8.17;7.47;;;0.70;96.70;;;;;;5035990;28;20634;-86
2023/01/20 05:07:22;;;;;;;8.60;7.80;;;0.60;96.60;;;;;;5038375;28;20254;-85
2023/01/20 05:09:48;;;;;;;7.80;6.67;;;0.60;97.50;;;;;;5038000;28;20254;-87
2023/01/20 05:12:14;;;;;;;8.70;7.00;;;0.60;97.00;;;;;;5038382;28;20180;-86
2023/01/20 05:14:40;;;;;;;8.70;7.03;;;0.60;96.30;;;;;;5037154;28;20209;-87
2023/01/20 05:17:05;;;;;;;7.63;6.90;;;0.50;97.00;;;;;;5023199;28;20251;-87
2023/01/20 05:19:31;;;;;;;7.40;6.40;;;0.40;98.30;;;;;;5002681;28;20212;-87
2023/01/20 05:21:59;;;;;;;7.37;6.67;;;0.40;98.30;;;;;;5029445;28;20185;-87
2023/01/20 05:24:24;;;;;;;7.03;6.27;;;0.40;98.40;;;;;;5024263;28;20185;-86
2023/01/20 05:26:50;;;;;;;7.33;6.63;;;0.30;98.90;;;;;;5042229;28;20205;-87
2023/01/20 05:29:16;;;;;;;8.07;6.53;;;0.30;98.80;;;;;;5024931;28;20200;-86
2023/01/20 05:31:44;;;;;;;8.30;6.53;;;0.20;97.80;;;;;;5024386;28;20196;-88
2023/01/20 05:34:10;;;;;;;8.40;6.77;;;0.00;97.90;;;;;;5024042;28;20729;-88
2023/01/20 05:36:35;;;;;;;9.03;6.87;;;-0.10;98.20;;;;;;5041974;28;20196;-88
2023/01/20 05:39:01;;;;;;;7.13;6.43;;;-0.10;99.50;;;;;;5009648;28;20272;-88
2023/01/20 05:41:27;;;;;;;6.60;6.00;;;0.00;99.80;;;;;;5020489;28;20248;-87
2023/01/20 05:43:53;;;;;;;6.13;5.53;;;0.20;99.40;;;;;;5047579;28;20215;-88
2023/01/20 05:46:19;;;;;;;6.10;5.50;;;0.10;97.50;;;;;;5046613;28;20184;-87
2023/01/20 05:48:44;;;;;;;7.30;5.60;;;0.00;98.30;;;;;;5046989;28;20200;-88
2023/01/20 05:51:10;;;;;;;5.47;4.97;;;-0.10;98.00;;;;;;5029647;28;20192;-88
2023/01/20 05:53:36;;;;;;;6.07;4.87;;;-0.10;97.90;;;;;;5031915;28;20190;-87
2023/01/20 05:56:04;;;;;;;6.33;4.97;;;-0.20;98.60;;;;;;5049277;28;20204;-87
2023/01/20 05:58:30;;;;;;;5.37;4.83;;;-0.30;99.10;;;;;;5041683;28;20186;-89
2023/01/20 06:01:04;;;;;;;7.77;5.80;;;-0.40;99.00;;;;;;5041719;28;20169;-90
2023/01/20 06:03:30;;;;;;;5.93;5.33;;;-0.40;99.40;;;;;;5058673;28;20196;-89
2023/01/20 06:06:04;;;;;;;7.73;4.93;;;-0.40;99.90;;;;;;5049288;28;20182;-88
2023/01/20 06:08:30;;;;;;;5.33;4.83;;;-0.20;99.90;;;;;;5026276;28;20279;-85
2023/01/20 06:10:56;;;;;;;6.07;4.90;;;-0.30;98.80;;;;;;5040214;28;20881;-88
2023/01/20 06:13:21;;;;;;;5.47;4.70;;;-0.20;99.80;;;;;;5032375;28;20188;-87
2023/01/20 06:15:54;;;;;;;5.67;4.73;;;-0.10;98.30;;;;;;5023795;28;20714;-87
2023/01/20 06:18:20;;;;;;;10.20;4.87;;;0.00;99.10;;;;;;5022350;28;20201;-87
2023/01/20 06:20:46;;;;;;;6.10;4.63;;;0.00;98.00;;;;;;5023044;28;20292;-89
2023/01/20 06:23:12;;;;;;;6.10;4.77;;;0.00;96.00;;;;;;5010624;28;20193;-90
2023/01/20 06:25:38;;;;;;;4.97;4.33;;;0.10;98.10;;;;;;5030323;28;20196;-88
2023/01/20 06:28:04;;;;;;;4.83;4.43;;;0.20;96.90;;;;;;5031352;28;20295;-89
2023/01/20 06:30:30;;;;;;;4.77;4.37;;;0.20;96.90;;;;;;5030655;28;20201;-89
2023/01/20 06:32:56;;;;;;;5.67;4.93;;;0.30;97.20;;;;;;5029238;28;20223;-88
2023/01/20 06:35:23;;;;;;;4.23;3.80;;;0.30;96.60;;;;;;5019070;28;20271;-90
2023/01/20 06:37:48;;;;;;;5.30;4.80;;;0.40;96.80;;;;;;5033793;28;20215;-89
2023/01/20 06:40:14;;;;;;;4.70;4.27;;;0.40;96.60;;;;;;5028913;28;20181;-87
2023/01/20 06:42:41;;;;;;;4.47;4.07;;;0.40;97.00;;;;;;5021429;28;20640;-88
2023/01/20 06:45:07;;;;;;;8.90;4.63;;;0.50;96.40;;;;;;5006673;28;20186;-88
2023/01/20 06:47:32;;;;;;;5.40;4.03;;;0.50;96.20;;;;;;5015693;28;20225;-88
2023/01/20 06:49:58;;;;;;;5.27;4.33;;;0.50;95.70;;;;;;5026767;28;20189;-88
2023/01/20 06:52:24;;;;;;;5.30;4.60;;;0.50;96.10;;;;;;5019635;28;20178;-87
2023/01/20 06:54:49;;;;;;;10.37;9.37;;;0.50;95.70;;;;;;5002973;28;20259;-87
2023/01/20 06:57:15;;;;;;;9.53;5.70;;;0.50;95.10;;;;;;5026163;28;20193;-88
2023/01/20 06:59:41;;;;;;;7.23;4.90;;;0.50;94.90;;;;;;5028461;28;20188;-89
2023/01/20 07:02:10;;;;;;;6.37;5.37;;;0.40;95.90;;;;;;5047712;28;20218;-87
2023/01/20 07:04:36;;;;;;;5.77;5.13;;;0.50;96.50;;;;;;5030815;28;20180;-87
2023/01/20 07:07:02;;;;;;;6.20;5.60;;;0.50;96.40;;;;;;5049515;28;20240;-89
2023/01/20 07:09:27;;;;;;;6.57;4.90;;;0.50;95.50;;;;;;5033899;28;20212;-90
2023/01/20 07:11:53;;;;;;;4.60;4.20;;;0.40;95.00;;;;;;5051140;28;20200;-87
2023/01/20 07:14:19;;;;;;;7.90;4.90;;;0.30;95.60;;;;;;5051228;28;20196;-87
2023/01/20 07:16:45;;;;;;;6.03;5.27;;;0.20;95.10;;;;;;5031317;28;20264;-88
2023/01/20 07:19:11;;;;;;;6.00;5.30;;;0.20;96.90;;;;;;5046258;28;20272;-87
2023/01/20 07:21:37;;;;;;;5.93;5.07;;;0.30;97.10;;;;;;5045389;28;20185;-86
2023/01/20 07:24:03;;;;;;;7.00;5.20;;;0.20;96.50;;;;;;5028124;28;20185;-87
2023/01/20 07:26:29;;;;;;;5.43;4.67;;;0.30;97.00;;;;;;5046085;28;20211;-87
2023/01/20 07:28:57;;;;;;;7.10;5.03;;;0.30;96.80;;;;;;5044714;28;20196;-88
2023/01/20 07:31:25;;;;;;;10.60;5.60;;;0.30;96.60;;;;;;5044347;28;20185;-88
2023/01/20 07:33:53;;;;;;;5.43;4.23;;;0.20;94.10;;;;;;5043950;28;20185;-87
2023/01/20 07:36:19;;;;;;;6.50;5.87;;;0.20;96.50;;;;;;5044495;28;20204;-88
2023/01/20 07:38:49;;;;;;;6.07;4.37;;;0.20;95.70;;;;;;5044458;28;20243;-86
2023/01/20 07:41:17;;;;;;;6.30;5.63;;;0.10;96.80;;;;;;5035496;28;20406;-87
2023/01/20 07:43:47;;;;;;;7.53;5.10;;;0.20;96.90;;;;;;5024213;28;20229;-87
2023/01/20 07:46:13;;;;;;;7.63;5.30;;;0.30;96.60;;;;;;5024535;28;20263;-87
2023/01/20 07:48:39;;;;;;;7.40;6.70;;;0.30;95.80;;;;;;5006770;28;20206;-87
2023/01/20 07:51:08;;;;;;;7.23;5.23;;;0.30;95.80;;;;;;5034322;28;20810;-88
2023/01/20 07:53:33;;;;;;;8.80;5.50;;;0.30;95.90;;;;;;5043105;28;20196;-90
2023/01/20 07:56:01;;;;;;;7.23;5.50;;;0.30;96.10;;;;;;5025746;28;20384;-87
2023/01/20 07:58:27;;;;;;;6.33;5.23;;;0.40;95.50;;;;;;5043845;28;20268;-87
2023/01/20 08:00:53;;;;;;;6.67;5.70;;;0.40;95.60;;;;;;5043009;28;20184;-85
2023/01/20 08:03:19;;;;;;;7.03;6.00;;;0.40;94.30;;;;;;5040390;28;20204;-86
2023/01/20 08:05:44;;;;;;;7.20;5.53;;;0.40;94.60;;;;;;5030455;28;20245;-88
2023/01/20 08:08:10;;;;;;;13.23;6.57;;;0.40;93.80;;;;;;5006473;28;20210;-87
2023/01/20 08:10:36;;;;;;;10.27;5.77;;;0.30;95.20;;;;;;5023555;28;20194;-87
2023/01/20 08:13:02;;;;;;;10.97;5.87;;;0.20;95.00;;;;;;5023257;28;20636;-87
2023/01/20 08:15:27;;;;;;;10.33;7.20;;;0.20;96.30;;;;;;5022919;28;20212;-87
2023/01/20 08:17:54;;;;;;;10.00;7.00;;;0.20;95.90;;;;;;5023164;28;20197;-88
2023/01/20 08:20:20;;;;;;;7.20;6.17;;;0.20;95.90;;;;;;5027176;28;20169;-89
2023/01/20 08:22:46;;;;;;;8.30;6.33;;;0.10;96.30;;;;;;5042834;28;20643;-88
2023/01/20 08:25:12;;;;;;;8.93;6.57;;;0.00;97.80;;;;;;5044383;28;20208;-86
2023/01/20 08:27:37;;;;;;;6.20;5.40;;;-0.10;98.90;;;;;;5046946;28;20212;-89
2023/01/20 08:30:04;;;;;;;7.43;6.33;;;-0.10;99.90;;;;;;5049856;28;20675;-87
2023/01/20 08:32:29;;;;;;;7.27;6.50;;;-0.20;99.90;;;;;;5023936;28;20257;-87
2023/01/20 08:34:55;;;;;;;8.57;6.60;;;-0.40;99.90;;;;;;5023139;28;20228;-88
2023/01/20 08:37:21;;;;;;;7.60;6.83;;;-0.40;99.90;;;;;;5021534;28;20251;-87
2023/01/20 08:39:47;;;;;;;9.30;6.77;;;-0.20;99.90;;;;;;5037274;28;20173;-87
2023/01/20 08:42:12;;;;;;;8.03;6.30;;;-0.10;99.90;;;;;;5037459;28;20188;-87
2023/01/20 08:44:38;;;;;;;9.03;6.00;;;-0.10;99.90;;;;;;5020255;28;20180;-85
2023/01/20 08:47:04;;;;;;;8.70;6.70;;;0.00;99.90;;;;;;5032569;28;20208;-90
2023/01/20 08:49:29;;;;;;;7.17;6.47;;;0.00;99.90;;;;;;5038259;28;20180;-90
2023/01/20 08:51:56;;;;;;;6.90;5.70;;;0.00;99.90;;;;;;5055636;28;20169;-90
2023/01/20 08:54:22;;;;;;;7.20;6.47;;;0.00;99.90;;;;;;5056784;28;20283;-87
2023/01/20 08:56:51;;;;;;;10.23;7.57;;;-0.10;99.90;;;;;;5032128;28;20197;-87
2023/01/20 08:59:18;;;;;;;8.70;7.77;;;-0.20;99.90;;;;;;5021381;28;20277;-86
2023/01/20 09:01:45;;;;;;;10.43;8.07;;;-0.10;99.90;;;;;;5041275;28;20279;-86
2023/01/20 09:04:11;;;;;;;11.07;8.83;;;-0.20;99.90;;;;;;5031017;28;20179;-88
2023/01/20 09:06:49;;;;;;;10.00;9.00;;;-0.20;99.90;;;;;;5048514;28;20181;-85
2023/01/20 09:09:16;;;;;;;10.93;9.40;;;-0.20;99.90;;;;;;5050553;28;20184;-86
2023/01/20 09:11:49;;;;;;;10.80;9.20;;;-0.10;99.90;;;;;;5032679;28;20185;-88
2023/01/20 09:14:18;;;;;;;10.87;9.43;;;-0.20;99.90;;;;;;5033348;28;20177;-86
2023/01/20 09:16:44;;;;;;;13.57;10.13;;;-0.20;99.90;;;;;;5035721;28;20221;-85
2023/01/20 09:19:10;;;;;;;12.50;11.23;;;-0.10;99.90;;;;;;5035442;28;20177;-85
2023/01/20 09:21:35;;;;;;;14.57;12.20;;;-0.10;99.90;;;;;;5053044;28;20185;-87
2023/01/20 09:24:01;;;;;;;13.53;12.00;;;0.00;99.90;;;;;;5053508;28;20207;-86
2023/01/20 09:26:27;;;;;;;15.63;11.90;;;0.00;99.90;;;;;;5053526;28;20196;-86
2023/01/20 09:28:52;;;;;;;11.27;9.87;;;0.00;99.90;;;;;;5035610;28;20202;-86
2023/01/20 09:31:19;;;;;;;14.40;10.77;;;0.00;99.90;;;;;;5053730;28;20204;-86
2023/01/20 09:33:44;;;;;;;12.40;10.83;;;0.00;99.90;;;;;;5053621;28;20185;-87
2023/01/20 09:36:10;;;;;;;14.03;10.97;;;0.00;99.90;;;;;;5052530;28;20260;-88
2023/01/20 09:44:23;;;;;;;10.23;9.13;;;0.20;99.90;;;;;;5052408;28;20268;-87
2023/01/20 09:47:30;;;;;;;13.10;8.73;;;0.20;99.90;;;;;;5033458;28;20229;-87
2023/01/20 09:53:14;;;;;;;11.77;8.67;;;0.30;99.90;;;;;;5033022;28;20197;-87
2023/01/20 09:55:53;;;;;;;11.03;9.73;;;0.30;99.90;;;;;;5027432;28;20236;-88
2023/01/20 09:58:30;;;;;;;11.93;9.50;;;0.40;99.90;;;;;;5043102;28;20209;-88
2023/01/20 10:01:12;;;;;;;11.93;9.50;;;0.50;99.90;;;;;;5032466;28;20166;-88
2023/01/20 10:04:09;;;;;;;10.30;9.27;;;0.60;99.90;;;;;;5033608;28;20196;-86
2023/01/20 10:07:15;;;;;;;13.03;10.63;;;0.80;99.90;;;;;;5013540;28;20216;-86
2023/01/20 10:09:53;;;;;;;12.67;10.90;;;0.80;99.90;;;;;;5051320;28;20212;-88
2023/01/20 10:12:32;;;;;;;15.20;10.77;;;0.80;99.90;;;;;;5050916;28;20377;-87
2023/01/20 10:15:07;;;;;;;13.53;11.23;;;0.90;99.90;;;;;;5051573;28;20337;-88
2023/01/20 10:17:38;;;;;;;11.87;10.67;;;1.10;99.90;;;;;;5048765;28;20204;-87
2023/01/20 10:20:09;;;;;;;13.97;12.40;;;1.30;99.90;;;;;;5032203;28;20180;-87
2023/01/20 10:22:52;;;;;;;12.90;11.50;;;1.40;99.90;;;;;;5050167;28;20176;-90
2023/01/20 10:25:17;;;;;;;14.00;12.57;;;1.60;99.90;;;;;;5050511;28;20234;-88
2023/01/20 10:27:56;;;;;;;15.80;12.53;;;1.70;99.90;;;;;;5050532;28;20201;-89
2023/01/20 10:30:30;;;;;;;13.23;11.57;;;1.70;99.90;;;;;;5052676;28;20172;-88
2023/01/20 10:33:28;;;;;;;13.70;11.07;;;1.60;99.90;;;;;;5050744;28;20181;-87
2023/01/20 10:35:55;;;;;;;13.33;11.93;;;1.60;99.90;;;;;;5035642;28;20284;-87
2023/01/20 10:38:43;;;;;;;15.20;13.07;;;1.60;99.90;;;;;;5049701;28;20189;-88
2023/01/20 10:41:14;;;;;;;15.07;13.50;;;1.80;99.90;;;;;;5050666;28;20240;-88
2023/01/20 10:43:40;;;;;;;17.03;13.27;;;1.90;99.90;;;;;;5032702;28;20212;-90
2023/01/20 10:46:44;;;;;;;15.60;13.60;;;2.20;99.80;;;;;;5049174;28;20185;-86
2023/01/20 10:49:33;;;;;;;18.87;13.07;;;2.30;97.30;;;;;;5024697;28;20200;-88
2023/01/20 10:52:13;;;;;;;15.33;12.97;;;2.20;98.40;;;;;;5000257;28;20219;-88
2023/01/20 10:54:57;;;;;;;15.73;13.17;;;2.50;97.40;;;;;;5046212;28;20205;-87
2023/01/20 10:57:23;;;;;;;19.87;13.20;;;2.50;97.10;;;;;;5026736;28;20197;-88
2023/01/20 11:00:03;;;;;;;14.00;12.57;;;2.60;95.10;;;;;;5040040;28;20493;-88
2023/01/20 11:02:33;;;;;;;15.57;13.10;;;2.80;94.70;;;;;;5030929;28;20204;-87
2023/01/20 11:05:02;;;;;;;15.77;13.47;;;3.00;93.10;;;;;;5047109;28;20699;-88
2023/01/20 11:07:31;;;;;;;14.90;13.23;;;3.00;93.40;;;;;;5048363;28;20234;-89
2023/01/20 11:10:00;;;;;;;14.67;13.17;;;3.10;93.90;;;;;;5047864;28;20245;-88
2023/01/20 11:12:38;;;;;;;14.30;12.60;;;3.20;92.30;;;;;;5029395;28;20189;-88
2023/01/20 11:15:18;;;;;;;15.47;13.20;;;3.00;93.40;;;;;;5022652;28;20287;-89
2023/01/20 11:17:44;;;;;;;15.23;13.07;;;3.10;94.20;;;;;;5028477;28;20197;-88
2023/01/20 11:20:18;;;;;;;15.83;12.70;;;3.30;94.40;;;;;;5028351;28;20192;-87
2023/01/20 11:22:49;;;;;;;18.73;13.50;;;3.80;91.50;;;;;;5028243;28;20184;-88
2023/01/20 11:25:25;;;;;;;14.57;13.07;;;3.70;89.50;;;;;;5045321;28;20215;-88
2023/01/20 11:27:52;;;;;;;14.27;11.87;;;3.80;89.00;;;;;;5025317;28;20205;-90
2023/01/20 11:30:31;;;;;;;14.27;12.77;;;3.50;90.50;;;;;;5025194;28;20224;-89
2023/01/20 11:33:17;;;;;;;15.00;12.87;;;3.10;91.10;;;;;;5025944;28;20177;-88
2023/01/20 11:36:22;;;;;;;14.83;12.10;;;3.00;91.70;;;;;;5015886;28;20219;-89
2023/01/20 11:38:50;;;;;;;16.33;13.07;;;3.30;91.40;;;;;;5015584;28;20200;-89
2023/01/20 11:41:29;;;;;;;15.83;13.00;;;3.30;89.90;;;;;;5043360;28;20192;-88
2023/01/20 11:43:57;;;;;;;15.53;12.63;;;3.50;90.10;;;;;;5009337;28;20165;-89
2023/01/20 11:46:27;;;;;;;14.33;12.30;;;3.80;86.70;;;;;;5043141;28;20204;-87
2023/01/20 11:49:25;;;;;;;14.23;12.83;;;3.40;88.90;;;;;;5025131;28;20185;-88
2023/01/20 11:51:56;;;;;;;16.10;12.03;;;3.30;89.20;;;;;;5011099;28;20194;-87
2023/01/20 11:54:26;;;;;;;14.97;12.37;;;3.30;90.10;;;;;;5023549;28;20193;-89
2023/01/20 11:56:55;;;;;;;14.60;12.83;;;3.30;91.30;;;;;;5042341;28;20674;-89
2023/01/20 11:59:25;;;;;;;14.93;12.00;;;3.60;88.70;;;;;;5041563;28;20714;-89
2023/01/20 12:02:07;;;;;;;16.27;11.60;;;3.70;87.80;;;;;;5026747;28;20188;-90
2023/01/20 12:05:11;;;;;;;13.07;11.57;;;3.40;89.20;;;;;;5029371;28;20238;-89
2023/01/20 12:07:45;;;;;;;11.40;10.27;;;3.50;89.00;;;;;;5041902;28;20189;-93
2023/01/20 12:10:28;;;;;;;12.83;10.17;;;3.40;88.80;;;;;;5045634;28;20192;-92
2023/01/20 12:12:56;;;;;;;12.83;11.63;;;3.40;87.80;;;;;;5036995;28;20189;-92
2023/01/20 12:15:29;;;;;;;12.47;11.27;;;3.40;89.20;;;;;;5053494;28;20264;-92
2023/01/20 12:18:03;;;;;;;12.43;11.13;;;3.90;87.00;;;;;;5027336;28;20228;-90
2023/01/20 12:20:48;;;;;;;13.23;11.83;;;3.80;84.70;;;;;;5033162;28;20188;-92
2023/01/20 12:23:19;;;;;;;14.20;11.67;;;3.40;87.90;;;;;;5037350;28;20169;-90
2023/01/20 12:25:55;;;;;;;12.73;11.43;;;3.20;89.10;;;;;;5039131;28;20463;-89
2023/01/20 12:28:44;;;;;;;12.50;11.10;;;3.10;88.80;;;;;;5106454;22;20237;-89
2023/01/20 12:31:12;;;;;;;12.07;10.57;;;3.00;88.90;;;;;;5100088;28;20353;-90
2023/01/20 12:33:44;;;;;;;12.17;10.50;;;3.00;89.20;;;;;;5101440;28;20185;-91
2023/01/20 12:36:34;;;;;;;13.17;11.77;;;2.90;89.50;;;;;;5099840;28;20194;-89
2023/01/20 12:39:34;;;;;;;12.33;11.03;;;3.10;86.90;;;;;;5081997;28;20257;-88
2023/01/20 12:42:09;;;;;;;11.57;10.30;;;2.90;87.80;;;;;;5078469;28;20176;-89
2023/01/20 12:44:47;;;;;;;14.93;10.87;;;2.80;90.50;;;;;;5077424;28;20198;-89
2023/01/20 12:47:42;;;;;;;12.20;10.90;;;2.90;89.20;;;;;;5079706;28;20215;-88
2023/01/20 12:50:28;;;;;;;12.33;10.33;;;3.00;89.00;;;;;;5073239;28;20180;-89
2023/01/20 12:53:03;;;;;;;12.37;10.57;;;3.00;88.40;;;;;;5078899;28;20233;-88
2023/01/20 12:55:51;;;;;;;13.50;9.90;;;3.00;87.70;;;;;;5076605;28;20198;-89
2023/01/20 12:58:44;;;;;;;12.90;9.90;;;3.00;87.50;;;;;;5077721;28;20187;-89
2023/01/20 13:01:12;;;;;;;10.10;9.10;;;3.20;85.60;;;;;;5078232;28;20156;-89
2023/01/20 13:04:00;;;;;;;11.50;8.27;;;3.40;83.40;;;;;;5077417;28;20171;-89
2023/01/20 13:06:52;;;;;;;9.80;8.80;;;3.80;82.00;;;;;;5077152;28;20214;-91
2023/01/20 13:09:30;;;;;;;9.57;8.60;;;4.00;77.80;;;;;;5027303;28;20191;-92
2023/01/20 13:12:23;;;;;;;9.80;8.47;;;4.00;76.10;;;;;;5075871;28;20179;-88
2023/01/20 13:14:59;;;;;;;8.90;8.00;;;3.90;78.20;;;;;;5077466;28;20205;-90
2023/01/20 13:17:43;;;;;;;9.80;7.80;;;3.50;78.10;;;;;;5076016;28;20195;-87
2023/01/20 13:20:29;;;;;;;9.63;8.63;;;3.40;78.90;;;;;;5055354;28;20774;-88
2023/01/20 13:22:57;;;;;;;11.97;8.97;;;3.50;79.90;;;;;;5054624;28;20174;-89
2023/01/20 13:25:24;;;;;;;10.03;8.67;;;3.80;80.00;;;;;;5064068;28;20160;-92
2023/01/20 13:27:53;;;;;;;9.43;8.53;;;4.20;76.40;;;;;;5078859;28;20200;-93
2023/01/20 13:30:38;;;;;;;10.07;9.03;;;4.60;74.50;;;;;;5096108;28;20175;-93
2023/01/20 13:33:11;;;;;;;9.10;8.20;;;4.50;76.10;;;;;;5095692;28;20179;-90